createdAt,value
2018-10-02T00:01:37.077Z,19.30
2018-10-02T00:04:06.324Z,19.30
2018-10-02T00:06:34.937Z,19.30
2018-10-02T00:09:03.665Z,19.30
2018-10-02T00:11:37.481Z,19.30
2018-10-02T00:14:11.287Z,19.30
2018-10-02T00:16:40.225Z,19.30
2018-10-02T00:19:08.871Z,19.30
2018-10-02T00:21:37.367Z,19.30
2018-10-02T00:24:06.185Z,19.30
2018-10-02T00:26:35.014Z,19.30
2018-10-02T00:29:03.465Z,19.30
2018-10-02T00:31:31.811Z,19.30
2018-10-02T00:34:00.699Z,19.30
2018-10-02T00:36:29.020Z,19.30
2018-10-02T00:38:57.605Z,19.30
2018-10-02T00:41:26.492Z,19.30
2018-10-02T00:43:54.797Z,19.30
2018-10-02T00:46:23.209Z,19.30
2018-10-02T00:48:51.568Z,19.30
2018-10-02T00:51:20.312Z,19.30
2018-10-02T00:53:48.654Z,19.30
2018-10-02T00:56:17.216Z,19.20
2018-10-02T00:58:45.544Z,19.30
2018-10-02T01:01:13.958Z,19.30
2018-10-02T01:03:42.544Z,19.30
2018-10-02T01:06:10.930Z,19.30
2018-10-02T01:08:39.306Z,19.30
2018-10-02T01:11:07.708Z,19.30
2018-10-02T01:13:36.566Z,19.20
2018-10-02T01:16:04.930Z,19.20
2018-10-02T01:18:33.698Z,19.30
2018-10-02T01:21:02.020Z,19.20
2018-10-02T01:23:30.590Z,19.20
2018-10-02T01:25:59.038Z,19.20
2018-10-02T01:28:27.481Z,19.20
2018-10-02T01:30:55.931Z,19.20
2018-10-02T01:33:24.870Z,19.20
2018-10-02T01:35:53.316Z,19.20
2018-10-02T01:38:21.817Z,19.20
2018-10-02T01:40:50.155Z,19.20
2018-10-02T01:43:18.499Z,19.20
2018-10-02T01:45:46.950Z,19.20
2018-10-02T01:48:15.305Z,19.20
2018-10-02T01:50:43.679Z,19.20
2018-10-02T01:53:12.013Z,19.20
2018-10-02T01:55:40.359Z,19.20
2018-10-02T01:58:08.697Z,19.20
2018-10-02T02:00:37.595Z,19.20
2018-10-02T02:03:06.043Z,19.20
2018-10-02T02:05:34.381Z,19.20
2018-10-02T02:08:02.663Z,19.20
2018-10-02T02:10:31.033Z,19.20
2018-10-02T02:12:59.479Z,19.20
2018-10-02T02:15:27.805Z,19.20
2018-10-02T02:17:57.741Z,19.20
2018-10-02T02:20:26.174Z,19.20
2018-10-02T02:22:54.825Z,19.20
2018-10-02T02:25:23.255Z,19.20
2018-10-02T02:27:52.074Z,19.20
2018-10-02T02:30:20.497Z,19.20
2018-10-02T02:32:48.885Z,19.20
2018-10-02T02:35:18.019Z,19.20
2018-10-02T02:37:46.659Z,19.20
2018-10-02T02:40:15.091Z,19.20
2018-10-02T02:42:43.799Z,19.20
2018-10-02T02:45:12.165Z,19.20
2018-10-02T02:47:46.089Z,19.20
2018-10-02T02:50:20.077Z,19.20
2018-10-02T02:52:51.117Z,19.20
2018-10-02T02:55:20.979Z,19.20
2018-10-02T02:57:50.313Z,19.20
2018-10-02T03:00:19.338Z,19.10
2018-10-02T03:02:48.286Z,19.20
2018-10-02T03:05:16.653Z,19.20
2018-10-02T03:07:45.125Z,19.20
2018-10-02T03:10:13.549Z,19.20
2018-10-02T03:12:42.096Z,19.20
2018-10-02T03:15:10.738Z,19.20
2018-10-02T03:17:39.381Z,19.20
2018-10-02T03:20:07.738Z,19.10
2018-10-02T03:22:36.191Z,19.10
2018-10-02T03:25:04.699Z,19.10
2018-10-02T03:27:33.354Z,19.20
2018-10-02T03:30:02.014Z,19.10
2018-10-02T03:32:30.622Z,19.10
2018-10-02T03:34:59.335Z,19.10
2018-10-02T03:37:27.748Z,19.10
2018-10-02T03:39:56.270Z,19.10
2018-10-02T03:42:24.670Z,19.10
2018-10-02T03:44:53.044Z,19.10
2018-10-02T03:47:22.418Z,19.10
2018-10-02T03:49:50.822Z,19.10
2018-10-02T03:52:19.255Z,19.10
2018-10-02T03:54:47.767Z,19.10
2018-10-02T03:57:16.146Z,19.10
2018-10-02T03:59:44.540Z,19.10
2018-10-02T04:02:19.667Z,19.10
2018-10-02T04:04:48.258Z,19.10
2018-10-02T04:07:16.670Z,19.10
2018-10-02T04:09:45.010Z,19.10
2018-10-02T04:12:13.776Z,19.10
2018-10-02T04:14:42.410Z,19.10
2018-10-02T04:17:11.046Z,19.10
2018-10-02T04:19:39.866Z,19.10
2018-10-02T04:22:08.468Z,19.10
2018-10-02T04:24:36.777Z,19.00
2018-10-02T04:27:05.608Z,19.10
2018-10-02T04:29:33.973Z,19.10
2018-10-02T04:32:02.461Z,19.00
2018-10-02T04:34:32.339Z,19.10
2018-10-02T04:37:00.965Z,19.10
2018-10-02T04:39:29.381Z,19.10
2018-10-02T04:41:57.845Z,19.10
2018-10-02T04:44:26.231Z,19.10
2018-10-02T04:46:54.614Z,19.10
2018-10-02T04:49:23.249Z,19.10
2018-10-02T04:51:51.633Z,19.10
2018-10-02T04:54:20.663Z,19.10
2018-10-02T04:56:49.095Z,19.00
2018-10-02T04:59:17.476Z,19.00
2018-10-02T05:01:46.069Z,19.00
2018-10-02T05:04:14.433Z,19.00
2018-10-02T05:06:42.927Z,19.00
2018-10-02T05:09:11.611Z,19.00
2018-10-02T05:11:40.110Z,19.00
2018-10-02T05:14:08.472Z,19.00
2018-10-02T05:16:36.791Z,19.00
2018-10-02T05:19:05.237Z,19.00
2018-10-02T05:21:34.209Z,19.00
2018-10-02T05:24:02.677Z,19.00
2018-10-02T05:26:31.067Z,19.00
2018-10-02T05:28:59.414Z,19.00
2018-10-02T05:31:27.726Z,19.00
2018-10-02T05:33:56.137Z,19.00
2018-10-02T05:36:24.489Z,19.00
2018-10-02T05:38:52.867Z,19.00
2018-10-02T05:41:21.308Z,19.00
2018-10-02T05:43:49.719Z,19.00
2018-10-02T05:46:18.113Z,19.00
2018-10-02T05:48:46.493Z,19.00
2018-10-02T05:51:15.753Z,19.00
2018-10-02T05:53:44.772Z,19.00
2018-10-02T05:56:13.089Z,19.00
2018-10-02T05:58:42.027Z,19.00
2018-10-02T06:01:11.259Z,19.00
2018-10-02T06:03:39.668Z,19.00
2018-10-02T06:06:08.154Z,19.00
2018-10-02T06:08:37.053Z,19.00
2018-10-02T06:11:05.705Z,19.00
2018-10-02T06:13:34.048Z,19.00
2018-10-02T06:16:02.400Z,19.00
2018-10-02T06:18:30.810Z,19.00
2018-10-02T06:20:59.159Z,19.00
2018-10-02T06:23:27.512Z,19.00
2018-10-02T06:25:56.439Z,19.00
2018-10-02T06:28:24.841Z,19.00
2018-10-02T06:30:53.308Z,19.00
2018-10-02T06:33:21.754Z,19.00
2018-10-02T06:35:50.192Z,19.00
2018-10-02T06:38:18.645Z,19.00
2018-10-02T06:40:47.112Z,19.00
2018-10-02T06:43:15.497Z,19.00
2018-10-02T06:45:43.912Z,19.00
2018-10-02T06:48:12.266Z,19.00
2018-10-02T06:50:40.645Z,19.00
2018-10-02T06:53:08.980Z,19.00
2018-10-02T06:55:37.342Z,19.00
2018-10-02T06:58:05.975Z,19.00
2018-10-02T07:00:34.406Z,19.00
2018-10-02T07:03:02.957Z,19.00
2018-10-02T07:05:31.295Z,19.00
2018-10-02T07:07:59.636Z,19.00
2018-10-02T07:10:28.017Z,18.90
2018-10-02T07:12:56.365Z,19.00
2018-10-02T07:15:24.680Z,19.00
2018-10-02T07:17:53.147Z,18.90
2018-10-02T07:20:21.595Z,18.90
2018-10-02T07:22:50.886Z,18.90
2018-10-02T07:25:19.243Z,19.00
2018-10-02T07:27:47.768Z,18.90
2018-10-02T07:30:16.019Z,18.90
2018-10-02T07:32:44.491Z,18.90
2018-10-02T07:35:12.867Z,18.90
2018-10-02T07:37:41.315Z,19.00
2018-10-02T07:40:09.782Z,18.90
2018-10-02T07:42:38.272Z,18.90
2018-10-02T07:45:06.881Z,18.90
2018-10-02T07:47:35.165Z,18.90
2018-10-02T07:50:03.563Z,18.90
2018-10-02T07:52:31.877Z,18.90
2018-10-02T07:55:00.235Z,18.90
2018-10-02T07:57:28.648Z,18.90
2018-10-02T07:59:57.055Z,18.90
2018-10-02T08:02:25.388Z,18.90
2018-10-02T08:04:54.016Z,18.90
2018-10-02T08:07:22.311Z,18.90
2018-10-02T08:09:50.850Z,18.90
2018-10-02T08:12:19.367Z,18.90
2018-10-02T08:14:47.837Z,18.90
2018-10-02T08:17:16.464Z,18.90
2018-10-02T08:19:45.681Z,18.90
2018-10-02T08:22:14.087Z,18.90
2018-10-02T08:24:42.493Z,18.90
2018-10-02T08:27:10.982Z,18.90
2018-10-02T08:29:39.325Z,18.90
2018-10-02T08:32:08.238Z,18.90
2018-10-02T08:34:36.573Z,18.90
2018-10-02T08:37:04.893Z,18.90
2018-10-02T08:39:33.920Z,18.90
2018-10-02T08:42:02.310Z,18.90
2018-10-02T08:44:30.633Z,18.90
2018-10-02T08:46:59.034Z,18.90
2018-10-02T08:49:27.586Z,18.90
2018-10-02T08:51:56.567Z,18.90
2018-10-02T08:54:24.901Z,18.90
2018-10-02T08:56:53.393Z,18.90
2018-10-02T08:59:21.815Z,18.90
2018-10-02T09:01:50.296Z,18.90
2018-10-02T09:04:18.668Z,18.90
2018-10-02T09:06:47.170Z,18.90
2018-10-02T09:09:15.580Z,18.90
2018-10-02T09:11:43.986Z,18.90
2018-10-02T09:14:12.348Z,18.90
2018-10-02T09:16:41.386Z,18.90
2018-10-02T09:19:09.669Z,18.90
2018-10-02T09:21:38.129Z,18.90
2018-10-02T09:24:06.718Z,18.90
2018-10-02T09:26:35.111Z,18.90
2018-10-02T09:29:03.564Z,18.90
2018-10-02T09:31:37.407Z,18.90
2018-10-02T09:34:11.282Z,18.90
2018-10-02T09:36:45.075Z,18.90
2018-10-02T09:39:18.867Z,18.90
2018-10-02T09:41:52.702Z,18.90
2018-10-02T09:44:21.136Z,18.90
2018-10-02T09:46:49.672Z,18.90
2018-10-02T09:49:19.193Z,18.90
2018-10-02T09:51:47.533Z,18.90
2018-10-02T09:54:15.909Z,18.90
2018-10-02T09:56:45.375Z,18.90
2018-10-02T09:59:15.175Z,18.80
2018-10-02T10:01:49.062Z,18.80
2018-10-02T10:04:18.373Z,18.90
2018-10-02T10:06:46.955Z,18.90
2018-10-02T10:09:15.309Z,18.80
2018-10-02T10:11:43.904Z,18.90
2018-10-02T10:14:12.318Z,18.90
2018-10-02T10:16:40.765Z,18.80
2018-10-02T10:19:09.035Z,18.90
2018-10-02T10:21:41.572Z,18.80
2018-10-02T10:24:09.888Z,18.80
2018-10-02T10:26:38.424Z,18.80
2018-10-02T10:29:06.877Z,18.80
2018-10-02T10:31:35.112Z,18.80
2018-10-02T10:34:03.468Z,18.80
2018-10-02T10:36:31.870Z,18.80
2018-10-02T10:39:01.057Z,18.80
2018-10-02T10:41:29.664Z,18.80
2018-10-02T10:43:58.029Z,18.80
2018-10-02T10:46:26.442Z,18.80
2018-10-02T10:48:54.776Z,18.80
2018-10-02T10:51:23.151Z,18.80
2018-10-02T10:53:51.536Z,18.80
2018-10-02T10:56:19.937Z,18.80
2018-10-02T10:58:48.342Z,18.80
2018-10-02T11:01:16.766Z,18.80
2018-10-02T11:03:45.198Z,18.80
2018-10-02T11:06:13.762Z,18.80
2018-10-02T11:08:42.167Z,18.80
2018-10-02T11:11:10.684Z,18.80
2018-10-02T11:13:39.024Z,18.80
2018-10-02T11:16:07.701Z,18.80
2018-10-02T11:18:36.136Z,18.80
2018-10-02T11:21:04.520Z,18.80
2018-10-02T11:23:32.862Z,18.80
2018-10-02T11:26:01.224Z,18.80
2018-10-02T11:28:29.596Z,18.80
2018-10-02T11:30:57.922Z,18.80
2018-10-02T11:33:26.263Z,18.80
2018-10-02T11:35:54.602Z,18.80
2018-10-02T11:38:22.976Z,18.80
2018-10-02T11:40:51.370Z,18.80
2018-10-02T11:43:19.912Z,18.80
2018-10-02T11:45:48.264Z,18.80
2018-10-02T11:48:16.656Z,18.80
2018-10-02T11:50:45.148Z,18.80
2018-10-02T11:53:13.554Z,18.80
2018-10-02T11:55:42.575Z,18.80
2018-10-02T11:58:10.937Z,18.80
2018-10-02T12:00:40.014Z,18.80
2018-10-02T12:03:08.389Z,18.80
2018-10-02T12:05:36.862Z,18.70
2018-10-02T12:08:06.064Z,18.80
2018-10-02T12:10:34.433Z,18.80
2018-10-02T12:13:03.019Z,18.80
2018-10-02T12:15:31.361Z,18.80
2018-10-02T12:17:59.763Z,18.80
2018-10-02T12:20:28.086Z,18.80
2018-10-02T12:22:56.649Z,18.80
2018-10-02T12:25:25.032Z,18.80
2018-10-02T12:27:53.411Z,18.70
2018-10-02T12:30:21.749Z,18.70
2018-10-02T12:32:50.303Z,18.70
2018-10-02T12:35:18.733Z,18.80
2018-10-02T12:37:47.655Z,18.70
2018-10-02T12:40:16.085Z,18.70
2018-10-02T12:42:44.979Z,18.70
2018-10-02T12:45:13.354Z,18.70
2018-10-02T12:47:41.769Z,18.70
2018-10-02T12:50:10.873Z,18.70
2018-10-02T12:52:39.385Z,18.70
2018-10-02T12:55:07.762Z,18.70
2018-10-02T12:57:36.136Z,18.70
2018-10-02T13:00:05.162Z,18.70
2018-10-02T13:02:33.612Z,18.70
2018-10-02T13:05:01.981Z,18.70
2018-10-02T13:07:30.394Z,18.70
2018-10-02T13:09:58.879Z,18.70
2018-10-02T13:12:27.350Z,18.70
2018-10-02T13:14:55.810Z,18.70
2018-10-02T13:17:24.182Z,18.70
2018-10-02T13:19:52.736Z,18.70
2018-10-02T13:22:21.163Z,18.70
2018-10-02T13:24:49.674Z,18.70
2018-10-02T13:27:18.874Z,18.70
2018-10-02T13:29:47.872Z,18.70
2018-10-02T13:32:16.270Z,18.70
2018-10-02T13:34:44.738Z,18.70
2018-10-02T13:37:13.420Z,18.70
2018-10-02T13:39:41.952Z,18.70
2018-10-02T13:42:10.440Z,18.70
2018-10-02T13:44:39.510Z,18.70
2018-10-02T13:47:07.984Z,18.70
2018-10-02T13:49:37.014Z,18.70
2018-10-02T13:52:05.372Z,18.70
2018-10-02T13:54:33.746Z,18.70
2018-10-02T13:57:02.319Z,18.70
2018-10-02T13:59:31.292Z,18.70
2018-10-02T14:01:59.658Z,18.70
2018-10-02T14:04:28.107Z,18.70
2018-10-02T14:06:56.588Z,18.70
2018-10-02T14:09:25.034Z,18.70
2018-10-02T14:11:54.096Z,18.70
2018-10-02T14:14:22.528Z,18.70
2018-10-02T14:16:50.975Z,18.70
2018-10-02T14:19:19.516Z,18.70
2018-10-02T14:21:47.900Z,18.70
2018-10-02T14:24:16.313Z,18.60
2018-10-02T14:26:44.763Z,18.70
2018-10-02T14:29:13.264Z,18.70
2018-10-02T14:31:41.604Z,18.70
2018-10-02T14:34:10.095Z,18.70
2018-10-02T14:36:38.526Z,18.70
2018-10-02T14:39:08.269Z,18.70
2018-10-02T14:41:36.842Z,18.70
2018-10-02T14:44:05.415Z,18.70
2018-10-02T14:46:33.824Z,18.70
2018-10-02T14:49:03.007Z,18.70
2018-10-02T14:51:31.461Z,18.70
2018-10-02T14:54:00.397Z,18.60
2018-10-02T14:56:28.775Z,18.70
2018-10-02T14:58:57.097Z,18.70
2018-10-02T15:01:25.506Z,18.60
2018-10-02T15:03:53.847Z,18.60
2018-10-02T15:06:22.172Z,18.70
2018-10-02T15:08:51.773Z,18.70
2018-10-02T15:11:20.093Z,18.70
2018-10-02T15:13:48.604Z,18.60
2018-10-02T15:16:16.987Z,18.70
2018-10-02T15:18:45.399Z,18.60
2018-10-02T15:21:13.962Z,18.70
2018-10-02T15:23:42.285Z,18.70
2018-10-02T15:26:10.647Z,18.60
2018-10-02T15:28:38.994Z,18.60
2018-10-02T15:31:07.975Z,18.60
2018-10-02T15:33:36.337Z,18.60
2018-10-02T15:36:04.709Z,18.60
2018-10-02T15:38:33.099Z,18.70
2018-10-02T15:41:01.572Z,18.60
2018-10-02T15:43:30.704Z,18.60
2018-10-02T15:45:59.088Z,18.60
2018-10-02T15:48:27.466Z,18.60
2018-10-02T15:50:55.905Z,18.60
2018-10-02T15:53:24.688Z,18.60
2018-10-02T15:55:53.119Z,18.60
2018-10-02T15:58:21.453Z,18.60
2018-10-02T16:00:50.176Z,18.60
2018-10-02T16:03:18.755Z,18.60
2018-10-02T16:05:47.198Z,18.60
2018-10-02T16:08:15.612Z,18.60
2018-10-02T16:10:44.100Z,18.60
2018-10-02T16:13:12.453Z,18.60
2018-10-02T16:15:40.802Z,18.60
2018-10-02T16:18:09.415Z,18.60
2018-10-02T16:20:37.775Z,18.60
2018-10-02T16:23:06.164Z,18.60
2018-10-02T16:25:34.490Z,18.60
2018-10-02T16:28:02.954Z,18.60
2018-10-02T16:30:31.399Z,18.60
2018-10-02T16:32:59.780Z,18.60
2018-10-02T16:35:28.146Z,18.60
2018-10-02T16:37:56.496Z,18.60
2018-10-02T16:40:24.972Z,18.60
2018-10-02T16:42:53.307Z,18.60
2018-10-02T16:45:21.637Z,18.60
2018-10-02T16:47:50.582Z,18.60
2018-10-02T16:50:18.888Z,18.60
2018-10-02T16:52:47.241Z,18.60
2018-10-02T16:55:15.730Z,18.60
2018-10-02T16:57:44.029Z,18.60
2018-10-02T17:00:12.565Z,18.60
2018-10-02T17:02:40.895Z,18.60
2018-10-02T17:05:09.393Z,18.60
2018-10-02T17:07:37.751Z,18.60
2018-10-02T17:10:06.415Z,18.60
2018-10-02T17:12:34.756Z,18.60
2018-10-02T17:15:03.273Z,18.60
2018-10-02T17:17:31.613Z,18.60
2018-10-02T17:20:00.089Z,18.60
2018-10-02T17:22:28.553Z,18.60
2018-10-02T17:24:56.975Z,18.60
2018-10-02T17:27:25.368Z,18.60
2018-10-02T17:29:53.791Z,18.60
2018-10-02T17:32:22.184Z,18.60
2018-10-02T17:34:50.592Z,18.60
2018-10-02T17:37:18.979Z,18.60
2018-10-02T17:39:47.914Z,18.50
2018-10-02T17:42:16.423Z,18.50
2018-10-02T17:44:45.381Z,18.50
2018-10-02T17:47:13.874Z,18.60
2018-10-02T17:49:42.193Z,18.50
2018-10-02T17:52:11.495Z,18.50
2018-10-02T17:54:39.961Z,18.50
2018-10-02T17:57:08.966Z,18.50
2018-10-02T17:59:37.322Z,18.50
2018-10-02T18:02:05.714Z,18.50
2018-10-02T18:04:34.088Z,18.50
2018-10-02T18:07:02.450Z,18.50
2018-10-02T18:09:30.805Z,18.50
2018-10-02T18:11:59.170Z,18.50
2018-10-02T18:14:27.670Z,18.50
2018-10-02T18:16:56.121Z,18.50
2018-10-02T18:19:24.490Z,18.50
2018-10-02T18:21:52.981Z,18.50
2018-10-02T18:24:21.490Z,18.50
2018-10-02T18:26:50.006Z,18.50
2018-10-02T18:29:18.594Z,18.50
2018-10-02T18:31:47.066Z,18.50
2018-10-02T18:34:15.590Z,18.50
2018-10-02T18:36:44.163Z,18.50
2018-10-02T18:39:16.547Z,18.50
2018-10-02T18:41:44.880Z,18.50
2018-10-02T18:44:13.443Z,18.50
2018-10-02T18:46:41.893Z,18.50
2018-10-02T18:49:10.385Z,18.50
2018-10-02T18:51:38.769Z,18.50
2018-10-02T18:54:07.180Z,18.50
2018-10-02T18:56:36.329Z,18.50
2018-10-02T18:59:04.645Z,18.50
2018-10-02T19:01:33.042Z,18.50
2018-10-02T19:04:01.843Z,18.50
2018-10-02T19:06:30.216Z,18.50
2018-10-02T19:09:03.857Z,18.50
2018-10-02T19:11:37.632Z,18.50
2018-10-02T19:14:06.007Z,18.50
2018-10-02T19:16:35.534Z,18.50
2018-10-02T19:19:03.996Z,18.50
2018-10-02T19:21:32.423Z,18.50
2018-10-02T19:24:00.755Z,18.50
2018-10-02T19:26:29.895Z,18.50
2018-10-02T19:28:58.373Z,18.50
2018-10-02T19:31:32.204Z,18.50
2018-10-02T19:34:01.057Z,18.50
2018-10-02T19:36:29.945Z,18.50
2018-10-02T19:39:06.506Z,18.50
2018-10-02T19:41:34.972Z,18.50
2018-10-02T19:44:03.471Z,18.50
2018-10-02T19:46:37.140Z,18.50
2018-10-02T19:49:05.567Z,18.50
2018-10-02T19:51:39.429Z,18.50
2018-10-02T19:54:07.837Z,18.50
2018-10-02T19:56:36.216Z,18.50
2018-10-02T19:59:04.583Z,18.50
2018-10-02T20:01:33.137Z,18.50
2018-10-02T20:04:02.277Z,18.50
2018-10-02T20:06:30.619Z,18.40
2018-10-02T20:08:59.163Z,18.50
2018-10-02T20:11:27.494Z,18.50
2018-10-02T20:13:55.910Z,18.40
2018-10-02T20:16:24.351Z,18.40
2018-10-02T20:18:54.306Z,18.50
2018-10-02T20:21:22.793Z,18.40
2018-10-02T20:23:51.115Z,18.50
2018-10-02T20:26:19.523Z,18.50
2018-10-02T20:28:48.012Z,18.50
2018-10-02T20:31:17.061Z,18.50
2018-10-02T20:33:45.490Z,18.50
2018-10-02T20:36:14.556Z,18.40
2018-10-02T20:38:43.092Z,18.40
2018-10-02T20:41:11.592Z,18.50
2018-10-02T20:43:40.603Z,18.40
2018-10-02T20:46:09.147Z,18.50
2018-10-02T20:48:37.744Z,18.40
2018-10-02T20:51:06.365Z,18.40
2018-10-02T20:53:34.906Z,18.40
2018-10-02T20:56:03.466Z,18.40
2018-10-02T20:58:31.859Z,18.40
2018-10-02T21:01:00.198Z,18.40
2018-10-02T21:03:28.598Z,18.40
2018-10-02T21:05:57.117Z,18.40
2018-10-02T21:08:25.591Z,18.40
2018-10-02T21:10:54.019Z,18.40
2018-10-02T21:13:22.595Z,18.40
2018-10-02T21:15:51.139Z,18.40
2018-10-02T21:18:20.893Z,18.40
2018-10-02T21:20:49.355Z,18.40
2018-10-02T21:23:17.782Z,18.40
2018-10-02T21:25:46.755Z,18.40
2018-10-02T21:28:15.143Z,18.40
2018-10-02T21:30:43.504Z,18.40
2018-10-02T21:33:12.389Z,18.40
2018-10-02T21:35:40.769Z,18.40
2018-10-02T21:38:09.237Z,18.40
2018-10-02T21:40:37.622Z,18.40
2018-10-02T21:43:06.720Z,18.40
2018-10-02T21:45:35.186Z,18.40
2018-10-02T21:48:03.622Z,18.40
2018-10-02T21:50:32.072Z,18.40
2018-10-02T21:53:01.081Z,18.40
2018-10-02T21:55:29.858Z,18.40
2018-10-02T21:57:58.354Z,18.40
2018-10-02T22:00:28.700Z,18.40
2018-10-02T22:02:57.144Z,18.40
2018-10-02T22:05:25.539Z,18.40
2018-10-02T22:07:53.899Z,18.40
2018-10-02T22:10:22.399Z,18.40
2018-10-02T22:12:50.771Z,18.40
2018-10-02T22:15:19.183Z,18.40
2018-10-02T22:17:47.658Z,18.40
2018-10-02T22:20:16.212Z,18.40
2018-10-02T22:22:44.531Z,18.40
2018-10-02T22:25:12.891Z,18.40
2018-10-02T22:27:41.289Z,18.40
2018-10-02T22:30:12.473Z,18.40
2018-10-02T22:32:40.943Z,18.40
2018-10-02T22:35:09.365Z,18.40
2018-10-02T22:37:37.803Z,18.40
2018-10-02T22:40:06.199Z,18.40
2018-10-02T22:42:34.533Z,18.40
2018-10-02T22:45:03.167Z,18.40
2018-10-02T22:47:31.751Z,18.40
2018-10-02T22:50:00.680Z,18.40
2018-10-02T22:52:29.101Z,18.40
2018-10-02T22:54:57.493Z,18.40
2018-10-02T22:57:25.914Z,18.40
2018-10-02T22:59:54.294Z,18.40
2018-10-02T23:02:22.640Z,18.40
2018-10-02T23:04:51.719Z,18.40
2018-10-02T23:07:20.213Z,18.40
2018-10-02T23:09:48.763Z,18.40
2018-10-02T23:12:17.101Z,18.40
2018-10-02T23:14:45.504Z,18.40
2018-10-02T23:17:13.911Z,18.40
2018-10-02T23:19:42.482Z,18.40
2018-10-02T23:22:10.930Z,18.40
2018-10-02T23:24:39.780Z,18.40
2018-10-02T23:27:08.153Z,18.40
2018-10-02T23:29:36.598Z,18.40
2018-10-02T23:32:04.922Z,18.40
2018-10-02T23:34:33.437Z,18.30
2018-10-02T23:37:02.431Z,18.40
2018-10-02T23:39:30.748Z,18.40
2018-10-02T23:41:59.085Z,18.30
2018-10-02T23:44:27.422Z,18.40
2018-10-02T23:46:55.875Z,18.30
2018-10-02T23:49:24.222Z,18.40
2018-10-02T23:51:53.182Z,18.30
2018-10-02T23:54:21.517Z,18.40
2018-10-02T23:56:49.969Z,18.40
2018-10-02T23:59:18.799Z,18.40
